• Join FlightAware (Why Join?)
  • Login
  • US Flag 
12:32PM EDT


 

Airport Tracker/Info


-or-


 

Live Flight TrackerFlight Track Log ✈ DAL1941 ✈ 26-May-2014 ✈ KMHT - KATL

Flight Track Log - Related Links

Times and Time Zones

All times are in EDT time to prevent confusion due to time zone crossing. See the DAL1941 flight status page for this flight to view local times or setup timezone preferences in your user account.

Time Position Orientation Groundspeed Altitude Reporting Facility
EDT Latitude Longitude Course Direction KTS MPH feet Rate Location/Type
06:04AM 42.9167 -71.4167 231° Southwest 156 180 1,100  Level KA90
06:05AM 42.8622 -71.4386 196° South 194 223 2,800 2,400 Climbing Boston Center
06:06AM 42.8019 -71.3967 153° Southeast 284 327 6,000 3,300 Climbing Boston Center
06:07AM 42.6193 -71.9759 232° Southwest  Level Estimated
06:07AM 42.8425 -71.3092 58° Northeast 294 338 9,400  Level Boston Center
06:08AM 42.5406 -72.1101 231° Southwest  Level Estimated
06:08AM 42.9189 -71.2383 34° Northeast 315 362 12,100  Level Boston Center
06:09AM 42.4616 -72.2439 231° Southwest  Level Estimated
06:09AM 42.9642 -71.1381 58° Northeast 340 391 14,000  Level Boston Center
06:10AM 42.9664 -70.9808 89° East 412 474 15,600 1,740 Climbing Boston Center
06:11AM 42.8750 -70.8844 142° Southeast 441 507 17,600 1,800 Climbing Boston Center
06:12AM 42.7756 -70.9194 194° South 441 507 19,300 1,680 Climbing Boston Center
06:13AM 42.6656 -70.9956 207° Southwest 443 510 21,000 1,680 Climbing Boston Center
06:14AM 42.5522 -71.0817 209° Southwest 462 532 22,700 1,680 Climbing Boston Center
06:15AM 42.4592 -71.2431 232° Southwest 462 532 24,500 1,920 Climbing Boston Center
06:16AM 42.4011 -71.3975 243° Southwest 462 532 26,600 1,620 Climbing Boston Center
06:17AM 42.3453 -71.5550 244° Southwest 463 533 27,800 1,440 Climbing Boston Center
06:18AM 42.2939 -71.6894 243° Southwest 465 535 29,600 1,500 Climbing Boston Center
06:19AM 42.2350 -71.8442 243° Southwest 464 534 30,900 1,200 Climbing Boston Center
06:20AM 42.1772 -71.9989 243° Southwest 462 532 32,100 1,200 Climbing Boston Center
06:21AM 42.1183 -72.1500 242° Southwest 453 521 33,400 900 Climbing Boston Center
06:22AM 42.0606 -72.2989 242° Southwest 448 516 34,000 240 Climbing Boston Center
06:23AM 42.0025 -72.4492 243° Southwest 448 516 34,000  Level Boston Center
06:24AM 41.9458 -72.5986 243° Southwest 447 514 34,000  Level Boston Center
06:25AM 41.8869 -72.7456 242° Southwest 446 513 34,000  Level Boston Center
06:26AM 41.8278 -72.8961 242° Southwest 447 514 34,000  Level Boston Center
06:27AM 41.7686 -73.0431 242° Southwest 447 514 34,000  Level Boston Center
06:28AM 41.7094 -73.1906 242° Southwest 447 514 34,000  Level Boston Center
06:29AM 41.6464 -73.3369 240° Southwest 447 514 34,000  Level Boston Center
06:30AM 41.5622 -73.4667 229° Southwest 459 528 34,000  Level Boston Center
06:31AM 41.4725 -73.6039 229° Southwest 459 528 34,000  Level Boston Center
06:32AM 41.3875 -73.7331 229° Southwest 462 532 34,000  Level Boston Center
06:33AM 41.3031 -73.8600 228° Southwest 461 531 34,000  Level Boston Center
06:34AM 41.2133 -73.9981 229° Southwest 467 537 34,000  Level New York Center
06:35AM 41.1244 -74.1258 227° Southwest 472 543 34,000  Level New York Center
06:36AM 41.0414 -74.2594 231° Southwest 472 543 34,000  Level New York Center
06:37AM 40.9603 -74.3925 231° Southwest 467 537 34,000  Level New York Center
06:38AM 40.8769 -74.5281 231° Southwest 467 537 34,000  Level New York Center
06:39AM 40.7975 -74.6608 232° Southwest 473 544 34,000 -60 Level New York Center
06:40AM 40.7142 -74.7900 230° Southwest 473 544 33,900  Descending New York Center
06:41AM 40.6325 -74.9222 231° Southwest 473 544 34,000  Climbing New York Center
06:42AM 40.5636 -75.0408 233° Southwest 473 544 34,000  Level New York Center
06:43AM 40.4817 -75.1722 231° Southwest 473 544 34,000  Level New York Center
06:44AM 40.3997 -75.3006 230° Southwest 473 544 34,000  Level New York Center
06:45AM 40.3172 -75.4339 231° Southwest 473 544 34,000  Level New York Center
06:46AM 40.2350 -75.5644 231° Southwest 473 544 34,000  Level New York Center
06:47AM 40.1544 -75.6947 231° Southwest 473 544 34,000  Level New York Center
06:48AM 40.0697 -75.8269 230° Southwest 473 544 34,000 -60 Level New York Center
06:49AM 39.9889 -75.9594 231° Southwest 473 544 33,900  Descending New York Center
06:50AM 39.9122 -76.0917 233° Southwest 473 544 34,000  Climbing New York Center
06:51AM 39.8117 -76.2356 228° Southwest 473 544 34,000  Level New York Center
06:52AM 39.7214 -76.3792 231° Southwest 478 550 34,000  Level Washington Center
06:53AM 39.6353 -76.5050 228° Southwest 468 539 34,000  Level Washington Center
06:54AM 39.5614 -76.6225 231° Southwest 474 545 34,000  Level Washington Center
06:55AM 39.4767 -76.7558 231° Southwest 474 545 34,000  Level Washington Center
06:56AM 39.3942 -76.8858 231° Southwest 474 545 34,000  Level Washington Center
06:57AM 39.3114 -77.0158 231° Southwest 474 545 34,000  Level Washington Center
06:58AM 39.2264 -77.1456 230° Southwest 474 545 34,000  Level Washington Center
06:59AM 39.1392 -77.2775 230° Southwest 479 551 34,000  Level Washington Center
07:00AM 39.0539 -77.4039 229° Southwest 479 551 34,000  Level Washington Center
07:01AM 38.9686 -77.5325 230° Southwest 479 551 34,000  Level Washington Center
07:02AM 38.8744 -77.6742 230° Southwest 479 551 34,000  Level Washington Center
07:03AM 38.7847 -77.8047 229° Southwest 486 559 34,000  Level Washington Center
07:04AM 38.6989 -77.9325 229° Southwest 487 560 34,000  Level Washington Center
07:05AM 38.6128 -78.0600 229° Southwest 482 555 34,000  Level Washington Center
07:06AM 38.5247 -78.1897 229° Southwest 482 555 34,000  Level Washington Center
07:07AM 38.4383 -78.3192 230° Southwest 482 555 34,000  Level Washington Center
07:08AM 38.3542 -78.4458 230° Southwest 482 555 34,000  Level Washington Center
07:09AM 38.2850 -78.5492 230° Southwest 482 555 34,000  Level Washington Center
07:10AM 38.1917 -78.6908 230° Southwest 476 548 34,000  Level Washington Center
07:11AM 38.1050 -78.8164 229° Southwest 476 548 34,000 300 Level Washington Center
07:12AM 38.0181 -78.9419 229° Southwest 476 548 34,700 660 Climbing Washington Center
07:13AM 37.9311 -79.0697 229° Southwest 476 548 35,300 540 Climbing Washington Center
07:14AM 37.8308 -79.2122 228° Southwest 483 556 35,800 300 Climbing Washington Center
07:15AM 37.7414 -79.3394 228° Southwest 483 556 36,000 60 Climbing Washington Center
07:16AM 37.6456 -79.4631 226° Southwest 495 570 36,000  Level Washington Center
07:17AM 37.5625 -79.5794 228° Southwest 502 578 36,000  Level Washington Center
07:18AM 37.4597 -79.7206 227° Southwest 502 578 36,000  Level Washington Center
07:20AM 37.3053 -79.9294 227° Southwest 486 559 36,000  Level Atlanta Center
07:21AM 37.2194 -80.0436 227° Southwest 486 559 36,000  Level Atlanta Center
07:22AM 37.1275 -80.1731 228° Southwest 491 565 36,000  Level Atlanta Center
07:23AM 37.0336 -80.2972 227° Southwest 491 565 36,000  Level Atlanta Center
07:24AM 36.9292 -80.4372 227° Southwest 491 565 36,000  Level Atlanta Center
07:25AM 36.8369 -80.5608 227° Southwest 486 559 36,000  Level Atlanta Center
07:26AM 36.7544 -80.6706 227° Southwest 484 557 36,000  Level Atlanta Center
07:27AM 36.6597 -80.7961 227° Southwest 484 557 36,000  Level Atlanta Center
07:28AM 36.5631 -80.9217 226° Southwest 489 563 36,000  Level Atlanta Center
07:29AM 36.4681 -81.0467 227° Southwest 489 563 36,000  Level Atlanta Center
07:30AM 36.3731 -81.1739 227° Southwest 494 568 36,000  Level Atlanta Center
07:31AM 36.2758 -81.2958 225° Southwest 494 568 36,000  Level Atlanta Center
07:32AM 36.1806 -81.4200 226° Southwest 494 568 36,000  Level Atlanta Center
07:33AM 36.0892 -81.5439 228° Southwest 494 568 36,000  Level Atlanta Center
07:34AM 35.9917 -81.6700 226° Southwest 494 568 36,000 -60 Level Atlanta Center
07:35AM 35.8981 -81.7906 226° Southwest 494 568 35,900 -540 Descending Atlanta Center
07:36AM 35.8042 -81.9083 226° Southwest 489 563 35,000 -480 Descending Atlanta Center
07:37AM 35.7122 -82.0286 227° Southwest 489 563 35,000  Level Atlanta Center
07:38AM 35.6181 -82.1483 226° Southwest 489 563 35,000  Level Atlanta Center
07:39AM 35.5239 -82.2653 225° Southwest 489 563 35,000 -720 Level Atlanta Center
07:40AM 35.4211 -82.3772 222° Southwest 489 563 33,600 -1,500 Descending Atlanta Center
07:41AM 35.3225 -82.4861 222° Southwest 489 563 32,100 -1,800 Descending Atlanta Center
07:42AM 35.2114 -82.6100 222° Southwest 483 556 30,000 -1,980 Descending Atlanta Center
07:43AM 35.1103 -82.7186 221° Southwest 490 564 28,200 -1,800 Descending Atlanta Center
07:44AM 35.0114 -82.8317 223° Southwest 490 564 26,500 -1,740 Descending Atlanta Center
07:45AM 34.9100 -82.9394 221° Southwest 490 564 24,800 -1,260 Descending Atlanta Center
07:46AM 34.8169 -83.0494 224° Southwest 480 552 24,000 -420 Descending Atlanta Center
07:47AM 34.7178 -83.1569 222° Southwest 480 552 24,000  Level Atlanta Center
07:48AM 34.6244 -83.2664 224° Southwest 474 545 24,000  Level Atlanta Center
07:49AM 34.5311 -83.3581 219° Southwest 474 545 24,000  Level Atlanta Center
07:50AM 34.4378 -83.4619 223° Southwest 464 534 24,000 -960 Level Atlanta Center
07:51AM 34.3422 -83.5658 222° Southwest 464 534 22,100 -2,400 Descending Atlanta Center
07:52AM 34.2508 -83.6694 223° Southwest 459 528 19,200 -2,760 Descending Atlanta Center
07:53AM 34.1633 -83.7628 221° Southwest 447 514 16,600 -2,520 Descending Atlanta Center
07:54AM 34.0800 -83.8533 222° Southwest 420 483 14,200 -2,160 Descending Atlanta Center
07:55AM 33.9989 -83.9386 221° Southwest 398 458 12,300 -1,140 Descending Atlanta Center
07:56AM 33.9050 -84.0189 215° Southwest 385 443 12,000 -180 Descending Atlanta Center
07:57AM 33.8233 -84.0814 212° Southwest 367 422 12,000  Level Atlanta Center
07:58AM 33.7483 -84.1289 208° Southwest 325 374 12,000  Level Atlanta Center
07:59AM 33.7272 -84.2186 254° West 277 319 12,000 -300 Level Atlanta Center
08:00AM 33.7292 -84.3161 271° West 271 312 11,400 -1,680 Descending Atlanta Center
08:01AM 33.7333 -84.4500 272° West 276 318 8,000 -2,340 Descending Atlanta TRACON
08:02AM 33.7333 -84.5333 270° West 263 303 6,000 -1,800 Descending Atlanta TRACON
08:03AM 33.7333 -84.6000 270° West 235 270 4,600 -960 Descending Atlanta TRACON
08:04AM 33.7000 -84.6500 231° Southwest 195 224 4,100 -480 Descending Atlanta TRACON
08:05AM 33.6500 -84.6000 140° Southeast 196 226 3,700 -780 Descending Atlanta TRACON
08:06AM 33.6500 -84.5333 90° East 201 231 2,600 -1,020 Descending Atlanta TRACON
08:07AM 33.6500 -84.4833 90° East 165 190 1,700 -840 Descending Atlanta TRACON
08:08AM 33.6500 -84.4333 90° East 136 157 1,100 -720 Descending Atlanta TRACON